sensor_id;sensor_type;location;lat;lon;timestamp;P1;durP1;ratioP1;P2;durP2;ratioP2
13374;SDS011;6756;51.354;15.754;2022-12-07T00:02:49;1.73;;;1.50;;
13374;SDS011;6756;51.354;15.754;2022-12-07T00:06:51;1.03;;;0.90;;
13374;SDS011;6756;51.354;15.754;2022-12-07T00:10:52;1.13;;;1.00;;
13374;SDS011;6756;51.354;15.754;2022-12-07T00:14:53;1.27;;;1.07;;
13374;SDS011;6756;51.354;15.754;2022-12-07T00:18:54;1.43;;;1.10;;
13374;SDS011;6756;51.354;15.754;2022-12-07T00:22:55;1.77;;;1.20;;
13374;SDS011;6756;51.354;15.754;2022-12-07T00:26:56;0.77;;;0.77;;
13374;SDS011;6756;51.354;15.754;2022-12-07T00:31:02;1.17;;;0.90;;
13374;SDS011;6756;51.354;15.754;2022-12-07T00:35:04;0.87;;;0.80;;
13374;SDS011;6756;51.354;15.754;2022-12-07T00:39:05;1.10;;;0.77;;
13374;SDS011;6756;51.354;15.754;2022-12-07T00:43:06;0.80;;;0.80;;
13374;SDS011;6756;51.354;15.754;2022-12-07T00:47:06;0.90;;;0.80;;
13374;SDS011;6756;51.354;15.754;2022-12-07T00:51:07;0.70;;;0.70;;
13374;SDS011;6756;51.354;15.754;2022-12-07T00:55:11;0.70;;;0.70;;
13374;SDS011;6756;51.354;15.754;2022-12-07T00:59:12;0.70;;;0.70;;
13374;SDS011;6756;51.354;15.754;2022-12-07T01:03:16;0.70;;;0.70;;
13374;SDS011;6756;51.354;15.754;2022-12-07T01:07:17;0.93;;;0.70;;
13374;SDS011;6756;51.354;15.754;2022-12-07T01:11:19;1.10;;;1.00;;
13374;SDS011;6756;51.354;15.754;2022-12-07T01:15:21;0.80;;;0.80;;
13374;SDS011;6756;51.354;15.754;2022-12-07T01:19:22;1.00;;;0.90;;
13374;SDS011;6756;51.354;15.754;2022-12-07T01:23:23;0.87;;;0.80;;
13374;SDS011;6756;51.354;15.754;2022-12-07T01:27:23;1.07;;;0.97;;
13374;SDS011;6756;51.354;15.754;2022-12-07T01:31:25;1.00;;;0.90;;
13374;SDS011;6756;51.354;15.754;2022-12-07T01:35:27;0.90;;;0.80;;
13374;SDS011;6756;51.354;15.754;2022-12-07T01:39:28;1.20;;;0.90;;
13374;SDS011;6756;51.354;15.754;2022-12-07T01:43:30;0.90;;;0.90;;
13374;SDS011;6756;51.354;15.754;2022-12-07T01:47:32;1.27;;;0.90;;
13374;SDS011;6756;51.354;15.754;2022-12-07T01:51:33;0.90;;;0.90;;
13374;SDS011;6756;51.354;15.754;2022-12-07T01:55:34;0.80;;;0.80;;
13374;SDS011;6756;51.354;15.754;2022-12-07T01:59:40;0.80;;;0.80;;
13374;SDS011;6756;51.354;15.754;2022-12-07T02:03:43;1.00;;;0.90;;
13374;SDS011;6756;51.354;15.754;2022-12-07T02:07:44;0.70;;;0.70;;
13374;SDS011;6756;51.354;15.754;2022-12-07T02:11:47;0.80;;;0.80;;
13374;SDS011;6756;51.354;15.754;2022-12-07T02:33:10;1.10;;;1.03;;
13374;SDS011;6756;51.354;15.754;2022-12-07T02:41:52;1.63;;;1.30;;
13374;SDS011;6756;51.354;15.754;2022-12-07T02:46:00;1.27;;;1.10;;
13374;SDS011;6756;51.354;15.754;2022-12-07T02:50:05;1.57;;;1.43;;
13374;SDS011;6756;51.354;15.754;2022-12-07T02:54:16;1.60;;;1.40;;
13374;SDS011;6756;51.354;15.754;2022-12-07T03:06:42;2.73;;;2.30;;
13374;SDS011;6756;51.354;15.754;2022-12-07T03:15:01;5.17;;;3.67;;
13374;SDS011;6756;51.354;15.754;2022-12-07T03:19:14;5.97;;;3.17;;
13374;SDS011;6756;51.354;15.754;2022-12-07T03:23:18;6.13;;;4.03;;
13374;SDS011;6756;51.354;15.754;2022-12-07T03:27:22;7.13;;;4.37;;
13374;SDS011;6756;51.354;15.754;2022-12-07T03:31:29;6.80;;;4.33;;
13374;SDS011;6756;51.354;15.754;2022-12-07T03:35:37;7.90;;;4.77;;
13374;SDS011;6756;51.354;15.754;2022-12-07T03:43:57;7.80;;;6.10;;
13374;SDS011;6756;51.354;15.754;2022-12-07T03:56:26;11.73;;;6.53;;
13374;SDS011;6756;51.354;15.754;2022-12-07T04:00:30;11.00;;;6.90;;
13374;SDS011;6756;51.354;15.754;2022-12-07T04:04:31;10.80;;;7.00;;
13374;SDS011;6756;51.354;15.754;2022-12-07T04:08:33;13.53;;;7.67;;
13374;SDS011;6756;51.354;15.754;2022-12-07T04:12:34;12.60;;;7.47;;
13374;SDS011;6756;51.354;15.754;2022-12-07T04:16:34;12.13;;;7.50;;
13374;SDS011;6756;51.354;15.754;2022-12-07T04:20:35;12.60;;;7.40;;
13374;SDS011;6756;51.354;15.754;2022-12-07T04:24:36;11.33;;;7.73;;
13374;SDS011;6756;51.354;15.754;2022-12-07T04:28:38;11.87;;;8.10;;
13374;SDS011;6756;51.354;15.754;2022-12-07T04:32:39;11.20;;;6.93;;
13374;SDS011;6756;51.354;15.754;2022-12-07T04:36:40;9.23;;;7.00;;
13374;SDS011;6756;51.354;15.754;2022-12-07T04:40:41;11.90;;;8.07;;
13374;SDS011;6756;51.354;15.754;2022-12-07T04:44:42;11.50;;;7.80;;
13374;SDS011;6756;51.354;15.754;2022-12-07T04:48:43;12.70;;;8.23;;
13374;SDS011;6756;51.354;15.754;2022-12-07T04:52:44;10.17;;;8.00;;
13374;SDS011;6756;51.354;15.754;2022-12-07T04:56:45;12.20;;;8.73;;
13374;SDS011;6756;51.354;15.754;2022-12-07T05:00:46;13.57;;;8.27;;
13374;SDS011;6756;51.354;15.754;2022-12-07T05:04:46;11.20;;;8.17;;
13374;SDS011;6756;51.354;15.754;2022-12-07T05:08:47;11.00;;;8.37;;
13374;SDS011;6756;51.354;15.754;2022-12-07T05:12:48;11.10;;;8.20;;
13374;SDS011;6756;51.354;15.754;2022-12-07T05:16:49;11.23;;;7.60;;
13374;SDS011;6756;51.354;15.754;2022-12-07T05:20:51;10.10;;;7.77;;
13374;SDS011;6756;51.354;15.754;2022-12-07T05:24:52;10.23;;;7.27;;
13374;SDS011;6756;51.354;15.754;2022-12-07T05:28:53;9.77;;;7.07;;
13374;SDS011;6756;51.354;15.754;2022-12-07T05:32:55;8.77;;;6.67;;
13374;SDS011;6756;51.354;15.754;2022-12-07T05:36:56;11.07;;;7.23;;
13374;SDS011;6756;51.354;15.754;2022-12-07T05:40:59;8.97;;;6.60;;
13374;SDS011;6756;51.354;15.754;2022-12-07T05:45:03;10.17;;;6.93;;
13374;SDS011;6756;51.354;15.754;2022-12-07T05:49:05;10.53;;;6.90;;
13374;SDS011;6756;51.354;15.754;2022-12-07T05:53:05;10.23;;;6.93;;
13374;SDS011;6756;51.354;15.754;2022-12-07T05:57:06;10.27;;;6.67;;
13374;SDS011;6756;51.354;15.754;2022-12-07T06:01:07;8.33;;;5.97;;
13374;SDS011;6756;51.354;15.754;2022-12-07T06:05:08;8.23;;;6.00;;
13374;SDS011;6756;51.354;15.754;2022-12-07T06:09:09;9.40;;;6.33;;
13374;SDS011;6756;51.354;15.754;2022-12-07T06:13:09;8.20;;;5.90;;
13374;SDS011;6756;51.354;15.754;2022-12-07T06:17:10;10.17;;;6.50;;
13374;SDS011;6756;51.354;15.754;2022-12-07T06:21:12;11.20;;;6.67;;
13374;SDS011;6756;51.354;15.754;2022-12-07T06:25:14;12.53;;;7.20;;
13374;SDS011;6756;51.354;15.754;2022-12-07T06:29:15;10.10;;;6.93;;
13374;SDS011;6756;51.354;15.754;2022-12-07T06:33:17;13.67;;;7.77;;
13374;SDS011;6756;51.354;15.754;2022-12-07T06:37:18;11.70;;;7.20;;
13374;SDS011;6756;51.354;15.754;2022-12-07T06:41:18;11.70;;;7.13;;
13374;SDS011;6756;51.354;15.754;2022-12-07T06:45:19;10.80;;;7.43;;
13374;SDS011;6756;51.354;15.754;2022-12-07T06:49:20;12.47;;;7.57;;
13374;SDS011;6756;51.354;15.754;2022-12-07T06:53:21;13.40;;;8.77;;
13374;SDS011;6756;51.354;15.754;2022-12-07T06:57:22;14.13;;;9.23;;
13374;SDS011;6756;51.354;15.754;2022-12-07T07:01:23;15.63;;;9.33;;
13374;SDS011;6756;51.354;15.754;2022-12-07T07:05:24;13.87;;;9.00;;
13374;SDS011;6756;51.354;15.754;2022-12-07T07:09:25;15.20;;;9.67;;
13374;SDS011;6756;51.354;15.754;2022-12-07T07:13:26;13.43;;;8.50;;
13374;SDS011;6756;51.354;15.754;2022-12-07T07:17:27;14.00;;;9.27;;
13374;SDS011;6756;51.354;15.754;2022-12-07T07:21:28;15.97;;;10.10;;
13374;SDS011;6756;51.354;15.754;2022-12-07T07:25:29;18.30;;;10.20;;
13374;SDS011;6756;51.354;15.754;2022-12-07T07:29:30;14.67;;;10.23;;
13374;SDS011;6756;51.354;15.754;2022-12-07T07:33:30;17.60;;;9.83;;
13374;SDS011;6756;51.354;15.754;2022-12-07T07:37:31;16.27;;;9.60;;
13374;SDS011;6756;51.354;15.754;2022-12-07T07:41:32;15.13;;;10.30;;
13374;SDS011;6756;51.354;15.754;2022-12-07T07:45:33;14.70;;;9.93;;
13374;SDS011;6756;51.354;15.754;2022-12-07T07:49:34;16.17;;;10.23;;
13374;SDS011;6756;51.354;15.754;2022-12-07T07:53:35;19.37;;;10.87;;
13374;SDS011;6756;51.354;15.754;2022-12-07T07:57:36;20.53;;;10.90;;
13374;SDS011;6756;51.354;15.754;2022-12-07T08:01:37;18.10;;;11.30;;
13374;SDS011;6756;51.354;15.754;2022-12-07T08:05:38;17.63;;;9.93;;
13374;SDS011;6756;51.354;15.754;2022-12-07T08:09:39;13.93;;;9.77;;
13374;SDS011;6756;51.354;15.754;2022-12-07T08:13:39;14.43;;;9.27;;
13374;SDS011;6756;51.354;15.754;2022-12-07T08:17:40;15.33;;;10.03;;
13374;SDS011;6756;51.354;15.754;2022-12-07T08:21:41;14.90;;;9.63;;
13374;SDS011;6756;51.354;15.754;2022-12-07T08:25:42;12.73;;;9.57;;
13374;SDS011;6756;51.354;15.754;2022-12-07T08:29:43;13.73;;;9.00;;
13374;SDS011;6756;51.354;15.754;2022-12-07T08:33:45;11.83;;;8.63;;
13374;SDS011;6756;51.354;15.754;2022-12-07T08:37:46;14.43;;;8.77;;
13374;SDS011;6756;51.354;15.754;2022-12-07T08:41:48;14.77;;;9.77;;
13374;SDS011;6756;51.354;15.754;2022-12-07T08:45:50;13.17;;;8.93;;
13374;SDS011;6756;51.354;15.754;2022-12-07T08:50:15;11.33;;;8.40;;
13374;SDS011;6756;51.354;15.754;2022-12-07T08:54:17;11.60;;;8.17;;
13374;SDS011;6756;51.354;15.754;2022-12-07T08:58:19;13.93;;;9.40;;
13374;SDS011;6756;51.354;15.754;2022-12-07T09:02:20;11.83;;;8.53;;
13374;SDS011;6756;51.354;15.754;2022-12-07T09:06:21;12.27;;;8.10;;
13374;SDS011;6756;51.354;15.754;2022-12-07T09:10:22;13.30;;;9.27;;
13374;SDS011;6756;51.354;15.754;2022-12-07T09:14:23;11.43;;;8.10;;
13374;SDS011;6756;51.354;15.754;2022-12-07T09:18:24;11.27;;;8.00;;
13374;SDS011;6756;51.354;15.754;2022-12-07T09:22:25;12.17;;;8.40;;
13374;SDS011;6756;51.354;15.754;2022-12-07T09:26:29;10.63;;;8.17;;
13374;SDS011;6756;51.354;15.754;2022-12-07T09:30:30;12.37;;;8.77;;
13374;SDS011;6756;51.354;15.754;2022-12-07T09:34:31;13.63;;;9.47;;
13374;SDS011;6756;51.354;15.754;2022-12-07T09:38:32;13.77;;;8.30;;
13374;SDS011;6756;51.354;15.754;2022-12-07T09:42:37;12.33;;;7.83;;
13374;SDS011;6756;51.354;15.754;2022-12-07T09:46:44;12.90;;;8.80;;
13374;SDS011;6756;51.354;15.754;2022-12-07T09:50:46;10.70;;;8.30;;
13374;SDS011;6756;51.354;15.754;2022-12-07T09:54:48;12.10;;;8.47;;
13374;SDS011;6756;51.354;15.754;2022-12-07T09:58:51;12.77;;;8.93;;
13374;SDS011;6756;51.354;15.754;2022-12-07T10:03:00;10.03;;;7.40;;
13374;SDS011;6756;51.354;15.754;2022-12-07T10:07:02;10.17;;;7.73;;
13374;SDS011;6756;51.354;15.754;2022-12-07T10:11:03;11.10;;;7.90;;
13374;SDS011;6756;51.354;15.754;2022-12-07T10:15:04;10.60;;;7.40;;
13374;SDS011;6756;51.354;15.754;2022-12-07T10:19:50;8.90;;;6.53;;
13374;SDS011;6756;51.354;15.754;2022-12-07T10:23:36;9.93;;;7.03;;
13374;SDS011;6756;51.354;15.754;2022-12-07T10:27:39;8.17;;;6.57;;
13374;SDS011;6756;51.354;15.754;2022-12-07T10:31:40;9.20;;;6.13;;
13374;SDS011;6756;51.354;15.754;2022-12-07T10:35:44;8.97;;;6.10;;
13374;SDS011;6756;51.354;15.754;2022-12-07T10:39:49;8.60;;;5.50;;
13374;SDS011;6756;51.354;15.754;2022-12-07T10:43:53;8.07;;;6.30;;
13374;SDS011;6756;51.354;15.754;2022-12-07T10:56:50;9.00;;;5.67;;
13374;SDS011;6756;51.354;15.754;2022-12-07T11:05:56;8.20;;;5.50;;
13374;SDS011;6756;51.354;15.754;2022-12-07T11:14:27;6.67;;;5.37;;
13374;SDS011;6756;51.354;15.754;2022-12-07T11:18:32;6.93;;;5.10;;
13374;SDS011;6756;51.354;15.754;2022-12-07T11:23:00;6.77;;;4.77;;
13374;SDS011;6756;51.354;15.754;2022-12-07T11:27:08;7.60;;;5.30;;
13374;SDS011;6756;51.354;15.754;2022-12-07T11:31:24;7.07;;;5.50;;
13374;SDS011;6756;51.354;15.754;2022-12-07T11:35:45;7.27;;;5.03;;
13374;SDS011;6756;51.354;15.754;2022-12-07T11:44:36;7.23;;;5.30;;
13374;SDS011;6756;51.354;15.754;2022-12-07T11:48:55;5.07;;;4.00;;
13374;SDS011;6756;51.354;15.754;2022-12-07T11:53:10;6.83;;;5.10;;
13374;SDS011;6756;51.354;15.754;2022-12-07T11:57:19;7.40;;;4.53;;
13374;SDS011;6756;51.354;15.754;2022-12-07T12:05:49;7.03;;;5.20;;
13374;SDS011;6756;51.354;15.754;2022-12-07T12:09:52;6.60;;;4.60;;
13374;SDS011;6756;51.354;15.754;2022-12-07T12:23:21;7.37;;;4.30;;
13374;SDS011;6756;51.354;15.754;2022-12-07T12:27:29;5.90;;;4.80;;
13374;SDS011;6756;51.354;15.754;2022-12-07T12:31:39;6.00;;;4.73;;
13374;SDS011;6756;51.354;15.754;2022-12-07T12:35:41;7.07;;;4.20;;
13374;SDS011;6756;51.354;15.754;2022-12-07T12:39:50;6.23;;;4.23;;
13374;SDS011;6756;51.354;15.754;2022-12-07T12:48:29;9.10;;;3.80;;
13374;SDS011;6756;51.354;15.754;2022-12-07T12:52:46;4.60;;;3.20;;
13374;SDS011;6756;51.354;15.754;2022-12-07T13:05:36;4.53;;;3.50;;
13374;SDS011;6756;51.354;15.754;2022-12-07T13:09:37;4.97;;;3.60;;
13374;SDS011;6756;51.354;15.754;2022-12-07T13:13:43;6.00;;;4.27;;
13374;SDS011;6756;51.354;15.754;2022-12-07T13:21:55;5.40;;;3.50;;
13374;SDS011;6756;51.354;15.754;2022-12-07T13:26:03;4.20;;;3.80;;
13374;SDS011;6756;51.354;15.754;2022-12-07T13:30:16;5.20;;;3.77;;
13374;SDS011;6756;51.354;15.754;2022-12-07T13:34:32;5.33;;;3.50;;
13374;SDS011;6756;51.354;15.754;2022-12-07T13:38:40;5.90;;;3.90;;
13374;SDS011;6756;51.354;15.754;2022-12-07T13:42:57;4.80;;;3.77;;
13374;SDS011;6756;51.354;15.754;2022-12-07T13:47:19;5.10;;;3.57;;
13374;SDS011;6756;51.354;15.754;2022-12-07T13:51:36;5.83;;;3.47;;
13374;SDS011;6756;51.354;15.754;2022-12-07T13:55:37;5.90;;;4.07;;
13374;SDS011;6756;51.354;15.754;2022-12-07T13:59:46;7.60;;;3.60;;
13374;SDS011;6756;51.354;15.754;2022-12-07T14:03:46;5.93;;;3.93;;
13374;SDS011;6756;51.354;15.754;2022-12-07T14:07:55;4.67;;;4.00;;
13374;SDS011;6756;51.354;15.754;2022-12-07T14:11:57;4.33;;;3.60;;
13374;SDS011;6756;51.354;15.754;2022-12-07T14:15:58;4.70;;;3.90;;
13374;SDS011;6756;51.354;15.754;2022-12-07T14:20:01;5.67;;;3.70;;
13374;SDS011;6756;51.354;15.754;2022-12-07T14:24:09;6.70;;;4.03;;
13374;SDS011;6756;51.354;15.754;2022-12-07T14:28:28;6.07;;;3.67;;
13374;SDS011;6756;51.354;15.754;2022-12-07T14:32:30;4.53;;;3.70;;
13374;SDS011;6756;51.354;15.754;2022-12-07T14:36:32;5.33;;;4.20;;
13374;SDS011;6756;51.354;15.754;2022-12-07T14:40:33;6.13;;;4.10;;
13374;SDS011;6756;51.354;15.754;2022-12-07T14:44:34;4.10;;;3.23;;
13374;SDS011;6756;51.354;15.754;2022-12-07T14:48:34;4.13;;;3.00;;
13374;SDS011;6756;51.354;15.754;2022-12-07T14:52:35;4.87;;;2.50;;
13374;SDS011;6756;51.354;15.754;2022-12-07T14:56:36;7.47;;;3.07;;
13374;SDS011;6756;51.354;15.754;2022-12-07T15:00:37;4.93;;;2.63;;
13374;SDS011;6756;51.354;15.754;2022-12-07T15:04:38;4.83;;;3.60;;
13374;SDS011;6756;51.354;15.754;2022-12-07T15:08:40;3.43;;;3.13;;
13374;SDS011;6756;51.354;15.754;2022-12-07T15:12:41;5.40;;;3.07;;
13374;SDS011;6756;51.354;15.754;2022-12-07T15:16:42;3.83;;;3.40;;
13374;SDS011;6756;51.354;15.754;2022-12-07T15:20:43;6.90;;;3.10;;
13374;SDS011;6756;51.354;15.754;2022-12-07T15:24:45;3.40;;;2.80;;
13374;SDS011;6756;51.354;15.754;2022-12-07T15:28:46;3.27;;;2.63;;
13374;SDS011;6756;51.354;15.754;2022-12-07T15:32:50;4.90;;;3.53;;
13374;SDS011;6756;51.354;15.754;2022-12-07T15:36:51;4.57;;;3.33;;
13374;SDS011;6756;51.354;15.754;2022-12-07T15:40:52;4.00;;;3.50;;
13374;SDS011;6756;51.354;15.754;2022-12-07T15:44:53;7.70;;;4.10;;
13374;SDS011;6756;51.354;15.754;2022-12-07T15:49:08;8.60;;;4.17;;
13374;SDS011;6756;51.354;15.754;2022-12-07T15:53:15;5.57;;;4.30;;
13374;SDS011;6756;51.354;15.754;2022-12-07T15:57:16;5.73;;;4.27;;
13374;SDS011;6756;51.354;15.754;2022-12-07T16:01:17;6.43;;;4.27;;
13374;SDS011;6756;51.354;15.754;2022-12-07T16:05:19;6.07;;;4.23;;
13374;SDS011;6756;51.354;15.754;2022-12-07T16:09:20;7.73;;;4.33;;
13374;SDS011;6756;51.354;15.754;2022-12-07T16:13:21;5.70;;;4.03;;
13374;SDS011;6756;51.354;15.754;2022-12-07T16:17:22;5.07;;;3.83;;
13374;SDS011;6756;51.354;15.754;2022-12-07T16:21:23;5.73;;;3.83;;
13374;SDS011;6756;51.354;15.754;2022-12-07T16:25:24;4.63;;;3.53;;
13374;SDS011;6756;51.354;15.754;2022-12-07T16:29:25;6.00;;;3.90;;
13374;SDS011;6756;51.354;15.754;2022-12-07T16:33:25;7.07;;;3.33;;
13374;SDS011;6756;51.354;15.754;2022-12-07T16:37:27;5.23;;;3.30;;
13374;SDS011;6756;51.354;15.754;2022-12-07T16:41:28;5.67;;;2.93;;
13374;SDS011;6756;51.354;15.754;2022-12-07T16:45:29;4.80;;;2.83;;
13374;SDS011;6756;51.354;15.754;2022-12-07T16:49:30;5.30;;;3.77;;
13374;SDS011;6756;51.354;15.754;2022-12-07T16:53:31;4.13;;;2.77;;
13374;SDS011;6756;51.354;15.754;2022-12-07T16:57:32;4.03;;;2.93;;
13374;SDS011;6756;51.354;15.754;2022-12-07T17:01:33;7.37;;;3.37;;
13374;SDS011;6756;51.354;15.754;2022-12-07T17:05:41;6.53;;;3.57;;
13374;SDS011;6756;51.354;15.754;2022-12-07T17:09:43;5.13;;;3.57;;
13374;SDS011;6756;51.354;15.754;2022-12-07T17:13:44;4.57;;;4.00;;
13374;SDS011;6756;51.354;15.754;2022-12-07T17:18:04;5.80;;;3.87;;
13374;SDS011;6756;51.354;15.754;2022-12-07T17:22:05;6.67;;;4.03;;
13374;SDS011;6756;51.354;15.754;2022-12-07T17:26:07;7.33;;;4.13;;
13374;SDS011;6756;51.354;15.754;2022-12-07T17:30:09;8.30;;;4.60;;
13374;SDS011;6756;51.354;15.754;2022-12-07T17:34:12;8.17;;;4.53;;
13374;SDS011;6756;51.354;15.754;2022-12-07T17:38:14;6.87;;;4.80;;
13374;SDS011;6756;51.354;15.754;2022-12-07T17:42:15;6.03;;;4.70;;
13374;SDS011;6756;51.354;15.754;2022-12-07T17:46:34;6.70;;;4.90;;
13374;SDS011;6756;51.354;15.754;2022-12-07T17:50:36;9.23;;;5.17;;
13374;SDS011;6756;51.354;15.754;2022-12-07T17:54:57;8.83;;;6.03;;
13374;SDS011;6756;51.354;15.754;2022-12-07T17:58:58;9.47;;;5.63;;
13374;SDS011;6756;51.354;15.754;2022-12-07T18:02:59;10.63;;;5.77;;
13374;SDS011;6756;51.354;15.754;2022-12-07T18:07:00;8.57;;;5.17;;
13374;SDS011;6756;51.354;15.754;2022-12-07T18:11:01;8.90;;;6.43;;
13374;SDS011;6756;51.354;15.754;2022-12-07T18:15:04;9.13;;;6.43;;
13374;SDS011;6756;51.354;15.754;2022-12-07T18:19:05;9.77;;;6.80;;
13374;SDS011;6756;51.354;15.754;2022-12-07T18:23:13;13.90;;;6.83;;
13374;SDS011;6756;51.354;15.754;2022-12-07T18:27:14;11.43;;;7.57;;
13374;SDS011;6756;51.354;15.754;2022-12-07T18:31:16;10.13;;;7.57;;
13374;SDS011;6756;51.354;15.754;2022-12-07T18:35:17;10.17;;;6.43;;
13374;SDS011;6756;51.354;15.754;2022-12-07T18:39:18;8.70;;;6.47;;
13374;SDS011;6756;51.354;15.754;2022-12-07T18:43:19;8.90;;;6.10;;
13374;SDS011;6756;51.354;15.754;2022-12-07T18:47:20;8.80;;;6.50;;
13374;SDS011;6756;51.354;15.754;2022-12-07T18:51:21;9.10;;;6.83;;
13374;SDS011;6756;51.354;15.754;2022-12-07T18:55:22;9.63;;;6.17;;
13374;SDS011;6756;51.354;15.754;2022-12-07T18:59:24;8.50;;;6.13;;
13374;SDS011;6756;51.354;15.754;2022-12-07T19:03:44;9.77;;;6.40;;
13374;SDS011;6756;51.354;15.754;2022-12-07T19:07:45;8.63;;;6.53;;
13374;SDS011;6756;51.354;15.754;2022-12-07T19:11:46;8.83;;;6.23;;
13374;SDS011;6756;51.354;15.754;2022-12-07T19:15:50;8.70;;;6.10;;
13374;SDS011;6756;51.354;15.754;2022-12-07T19:19:51;10.57;;;7.03;;
13374;SDS011;6756;51.354;15.754;2022-12-07T19:23:52;8.83;;;5.50;;
13374;SDS011;6756;51.354;15.754;2022-12-07T19:27:54;10.50;;;6.57;;
13374;SDS011;6756;51.354;15.754;2022-12-07T19:31:55;9.40;;;5.73;;
13374;SDS011;6756;51.354;15.754;2022-12-07T19:35:57;9.77;;;6.47;;
13374;SDS011;6756;51.354;15.754;2022-12-07T19:39:58;9.53;;;5.80;;
13374;SDS011;6756;51.354;15.754;2022-12-07T19:44:04;7.80;;;5.47;;
13374;SDS011;6756;51.354;15.754;2022-12-07T19:48:12;8.10;;;6.73;;
13374;SDS011;6756;51.354;15.754;2022-12-07T19:52:13;8.90;;;5.50;;
13374;SDS011;6756;51.354;15.754;2022-12-07T19:56:15;8.57;;;5.63;;
13374;SDS011;6756;51.354;15.754;2022-12-07T20:00:17;8.13;;;5.90;;
13374;SDS011;6756;51.354;15.754;2022-12-07T20:04:24;5.47;;;4.77;;
13374;SDS011;6756;51.354;15.754;2022-12-07T20:08:26;8.40;;;5.00;;
13374;SDS011;6756;51.354;15.754;2022-12-07T20:12:27;7.00;;;4.87;;
13374;SDS011;6756;51.354;15.754;2022-12-07T20:16:46;5.80;;;4.90;;
13374;SDS011;6756;51.354;15.754;2022-12-07T20:20:57;8.43;;;4.60;;
13374;SDS011;6756;51.354;15.754;2022-12-07T20:24:58;7.67;;;4.47;;
13374;SDS011;6756;51.354;15.754;2022-12-07T20:28:59;5.73;;;4.63;;
13374;SDS011;6756;51.354;15.754;2022-12-07T20:33:00;6.20;;;4.73;;
13374;SDS011;6756;51.354;15.754;2022-12-07T20:37:01;4.87;;;4.37;;
13374;SDS011;6756;51.354;15.754;2022-12-07T20:41:03;5.77;;;4.57;;
13374;SDS011;6756;51.354;15.754;2022-12-07T20:45:06;5.53;;;4.13;;
13374;SDS011;6756;51.354;15.754;2022-12-07T20:49:08;6.17;;;4.77;;
13374;SDS011;6756;51.354;15.754;2022-12-07T20:53:12;9.90;;;4.97;;
13374;SDS011;6756;51.354;15.754;2022-12-07T20:57:13;7.50;;;5.07;;
13374;SDS011;6756;51.354;15.754;2022-12-07T21:01:14;7.70;;;5.50;;
13374;SDS011;6756;51.354;15.754;2022-12-07T21:05:15;6.70;;;4.93;;
13374;SDS011;6756;51.354;15.754;2022-12-07T21:09:17;8.77;;;5.40;;
13374;SDS011;6756;51.354;15.754;2022-12-07T21:13:23;8.77;;;4.93;;
13374;SDS011;6756;51.354;15.754;2022-12-07T21:17:25;9.20;;;6.13;;
13374;SDS011;6756;51.354;15.754;2022-12-07T21:21:26;7.83;;;5.47;;
13374;SDS011;6756;51.354;15.754;2022-12-07T21:25:27;8.17;;;6.13;;
13374;SDS011;6756;51.354;15.754;2022-12-07T21:29:28;9.93;;;5.63;;
13374;SDS011;6756;51.354;15.754;2022-12-07T21:33:30;8.63;;;5.67;;
13374;SDS011;6756;51.354;15.754;2022-12-07T21:37:31;7.63;;;5.37;;
13374;SDS011;6756;51.354;15.754;2022-12-07T21:41:33;8.57;;;5.70;;
13374;SDS011;6756;51.354;15.754;2022-12-07T21:45:34;9.67;;;5.73;;
13374;SDS011;6756;51.354;15.754;2022-12-07T21:49:35;9.70;;;5.13;;
13374;SDS011;6756;51.354;15.754;2022-12-07T21:53:36;13.13;;;5.60;;
13374;SDS011;6756;51.354;15.754;2022-12-07T21:57:38;6.37;;;5.10;;
13374;SDS011;6756;51.354;15.754;2022-12-07T22:01:39;11.53;;;5.23;;
13374;SDS011;6756;51.354;15.754;2022-12-07T22:05:44;9.50;;;5.50;;
13374;SDS011;6756;51.354;15.754;2022-12-07T22:09:45;8.73;;;5.27;;
13374;SDS011;6756;51.354;15.754;2022-12-07T22:13:46;6.33;;;4.97;;
13374;SDS011;6756;51.354;15.754;2022-12-07T22:18:06;7.93;;;4.60;;
13374;SDS011;6756;51.354;15.754;2022-12-07T22:22:10;6.37;;;4.60;;
13374;SDS011;6756;51.354;15.754;2022-12-07T22:26:14;8.33;;;4.77;;
13374;SDS011;6756;51.354;15.754;2022-12-07T22:30:19;8.13;;;5.20;;
13374;SDS011;6756;51.354;15.754;2022-12-07T22:34:20;8.87;;;5.43;;
13374;SDS011;6756;51.354;15.754;2022-12-07T22:38:20;7.13;;;5.00;;
13374;SDS011;6756;51.354;15.754;2022-12-07T22:42:21;5.97;;;4.50;;
13374;SDS011;6756;51.354;15.754;2022-12-07T22:46:23;6.33;;;4.23;;
13374;SDS011;6756;51.354;15.754;2022-12-07T22:50:24;8.37;;;5.03;;
13374;SDS011;6756;51.354;15.754;2022-12-07T22:54:24;6.37;;;4.40;;
13374;SDS011;6756;51.354;15.754;2022-12-07T22:58:25;8.00;;;4.60;;
13374;SDS011;6756;51.354;15.754;2022-12-07T23:02:26;8.27;;;4.30;;
13374;SDS011;6756;51.354;15.754;2022-12-07T23:06:29;5.77;;;4.13;;
13374;SDS011;6756;51.354;15.754;2022-12-07T23:10:30;8.10;;;4.00;;
13374;SDS011;6756;51.354;15.754;2022-12-07T23:14:34;4.47;;;3.40;;
13374;SDS011;6756;51.354;15.754;2022-12-07T23:18:36;6.73;;;3.30;;
13374;SDS011;6756;51.354;15.754;2022-12-07T23:22:38;8.60;;;3.70;;
13374;SDS011;6756;51.354;15.754;2022-12-07T23:26:40;4.83;;;3.30;;
13374;SDS011;6756;51.354;15.754;2022-12-07T23:30:41;5.97;;;3.17;;
13374;SDS011;6756;51.354;15.754;2022-12-07T23:34:42;6.40;;;4.03;;
13374;SDS011;6756;51.354;15.754;2022-12-07T23:38:43;3.97;;;3.23;;
13374;SDS011;6756;51.354;15.754;2022-12-07T23:42:46;4.30;;;3.23;;
13374;SDS011;6756;51.354;15.754;2022-12-07T23:46:47;6.43;;;4.20;;
13374;SDS011;6756;51.354;15.754;2022-12-07T23:50:47;5.90;;;3.33;;
13374;SDS011;6756;51.354;15.754;2022-12-07T23:54:48;6.17;;;3.97;;
13374;SDS011;6756;51.354;15.754;2022-12-07T23:58:49;5.50;;;4.43;;
